Boyd Deep Canyon Reserve, California Weather observations

Data are for 10 minute period ending at time listed.
 Day   Time   Solar   Ave.   Ave.  Ave.  Vector  Max.   Baro.   Total    
  of    of     Rad.   Air    Rel.  Wind   Wind   Wind  Press.  Precip.   
Year   Day            Temp.  Hum.  Speed  Dir.   Gust                    
2014   (PST)  Kw/m2    F      %     mph   deg.    mph    mb.     in.     
-------------------------------------------------------------------------
 245    0:30   0.00   90.2    13   10.0   199    14.9   971.8    0.00 
 245    0:40   0.00   90.0    13   10.8   198    16.1   971.7    0.00 
 245    0:50   0.00   90.3    12   11.2   198    17.1   971.6    0.00 
 245    1:00   0.00   90.1    13   11.4   204    16.3   971.7    0.00 
 245    1:10   0.00   89.6    13   12.4   209    17.5   971.7    0.00 
 245    1:20   0.00   89.6    13   11.9   207    18.7   971.7    0.00 
 245    1:30   0.00   89.7    12   10.4   206    14.8   971.7    0.00 
 245    1:40   0.00   89.5    12   11.2   208    15.7   971.8    0.00 
 245    1:50   0.00   89.2    13    9.1   212    14.5   971.9    0.00 
 245    2:00   0.00   87.5    13    4.9   166    11.9   971.9    0.00 
 245    2:10   0.00   83.1    14    5.1    60     7.3   972.0    0.00 
 245    2:20   0.00   81.7    14    4.5    61     6.4   972.0    0.00 
 245    2:30   0.00   81.6    14    3.3    52     4.5   972.1    0.00 
 245    2:40   0.00   81.3    14    3.7    50     5.9   972.1    0.00 
 245    2:50   0.00   80.7    15    2.7    27     4.5   972.2    0.00 
 245    3:00   0.00   80.7    15    2.6     9     4.5   972.3    0.00 
 245    3:10   0.00   80.6    15    2.6    45     3.9   972.3    0.00 
 245    3:20   0.00   80.5    16    3.2    54     4.2   972.4    0.00 
 245    3:30   0.00   80.9    15    2.8    54     5.5   972.5    0.00 
 245    3:40   0.00   80.7    16    1.2    60     3.1   972.5    0.00 
 245    3:50   0.00   80.7    16    0.9    24     2.8   972.6    0.00 
 245    4:00   0.00   81.6    16    1.7    46     3.0   972.6    0.00 
 245    4:10   0.00   80.9    17    0.3    54     2.2   972.7    0.00 
 245    4:20   0.00   81.6    17    1.0    18     2.4   972.7    0.00 
 245    4:30   0.00   81.4    18    1.6     8     3.7   972.8    0.00 
 245    4:40   0.00   80.4    19    2.8    67     4.2   972.8    0.00 
 245    4:50   0.00   80.4    19    1.4    60     3.0   972.8    0.00 
 245    5:00   0.00   80.0    19    2.4    57     3.5   972.8    0.00 
 245    5:10   0.00   80.6    18    1.3    22     3.5   972.8    0.00 
 245    5:20   0.00   80.6    17    1.8    58     3.5   972.9    0.00 
 245    5:30   0.00   80.9    16    2.9    62     4.9   972.9    0.00 
 245    5:40   0.01   80.1    17    1.7    65     3.1   973.1    0.00 
 245    5:50   0.01   79.6    17    2.9    56     4.1   973.1    0.00 
 245    6:00   0.01   80.0    17    1.5    53     2.9   973.2    0.00 
 245    6:10   0.02   79.5    17    2.0    69     3.2   973.2    0.00 
 245    6:20   0.09   79.8    17    1.1   360     2.2   973.3    0.00 
 245    6:30   0.17   83.3    15    1.5    43     2.5   973.2    0.00 
 245    6:40   0.20   84.8    16    1.3    51     2.5   973.2    0.00 
 245    6:50   0.24   86.5    14    0.5    11     1.7   973.1    0.00 
 245    7:00   0.28   86.3    15    1.5    24     2.5   973.1    0.00 
 245    7:10   0.32   87.1    14    1.4    29     2.3   973.1    0.00 
 245    7:20   0.35   87.9    13    1.9    46     2.9   973.0    0.00 
 245    7:30   0.39   88.2    13    1.8    22     3.1   973.0    0.00 
 245    7:40   0.43   88.7    13    1.8    22     3.2   973.0    0.00 
 245    7:50   0.46   90.2    13    1.7    38     3.0   973.0    0.00 
 245    8:00   0.50   91.3    12    1.4    46     3.0   973.0    0.00 
 245    8:10   0.54   92.0    12    0.6    84     2.6   973.1    0.00 
 245    8:20   0.57   94.6    12    1.3     3     3.3   973.2    0.00 
 245    8:30   0.60   93.9    12    1.6    34     4.2   973.3    0.00 
 245    8:40   0.64   94.7    12    1.9    27     3.9   973.5    0.00 
 245    8:50   0.67   95.3    12    2.1    26     4.5   973.6    0.00 
 245    9:00   0.69   95.1    12    2.4     1     5.6   973.6    0.00 
 245    9:10   0.72   95.7    12    2.2   343     5.0   973.7    0.00 
 245    9:20   0.75   95.9    12    2.6     9     5.0   973.8    0.00 
 245    9:30   0.78   97.1    12    5.0    62     9.1   973.8    0.00 
 245    9:40   0.80   95.9    12    6.7    66    10.7   973.9    0.00 
 245    9:50   0.82   96.5    12    5.8    50    10.6   973.9    0.00 
 245   10:00   0.84   97.2    11    5.3    58    10.4   974.0    0.00 
 245   10:10   0.86   97.6    11    5.2    62    12.3   974.0    0.00 
 245   10:20   0.88   97.4    12    5.3    74     9.7   973.9    0.00 
 245   10:30   0.89   97.5    12    5.1    70    10.1   973.9    0.00 
 245   10:40   0.91   97.9    12    4.4    95     8.8   973.8    0.00 
 245   10:50   0.92   97.9    11    5.2    66     9.3   973.7    0.00 
 245   11:00   0.93   98.3    11    5.8    66     9.6   973.7    0.00 
 245   11:10   0.94   98.1    12    6.5    72    10.4   973.6    0.00 
 245   11:20   0.95   97.8    12    6.1    75    13.7   973.6    0.00 
 245   11:30   0.95   98.3    12    4.9    79     9.2   973.5    0.00 
 245   11:40   0.95   98.8    12    6.7    44    13.7   973.4    0.00 
 245   11:50   0.95   98.2    12    6.7    65    11.7   973.3    0.00 
 245   12:00   0.95   99.2    12    6.5    51    11.3   973.2    0.00 
 245   12:10   0.95   99.0    12    5.1    59     8.7   973.0    0.00 
 245   12:20   0.92   99.2    12    4.4    59     8.8   972.9    0.00 
 245   12:30   0.94   99.7    12    5.7    49    11.6   972.8    0.00 
 245   12:40   0.93   99.4    13    6.2    74    12.9   972.8    0.00 
 245   12:50   0.92   99.6    13    7.0    61    11.4   972.6    0.00 
 245   13:00   0.91  100.1    13    4.8    75    10.8   972.5    0.00 
 245   13:10   0.90  100.0    12    4.5    94     9.1   972.3    0.00 
 245   13:20   0.88   99.9    12    4.5    93     9.3   972.2    0.00 
 245   13:30   0.86  100.8    12    5.8    75    12.6   972.1    0.00 
 245   13:40   0.84  100.1    12    7.0    82    11.0   972.0    0.00 
 245   13:50   0.82  100.5    12    6.5    73    11.8   971.9    0.00 
 245   14:00   0.80  100.2    12    6.9    78    11.2   971.7    0.00 
 245   14:10   0.78  101.1    12    5.3    65    11.5   971.6    0.00 
 245   14:20   0.75  100.6    12    5.8    84    11.2   971.5    0.00 
 245   14:30   0.72  101.6    11    4.0    82     8.9   971.3    0.00 
 245   14:40   0.69  101.0    12    5.0    76    10.1   971.2    0.00 
 245   14:50   0.66  101.6    12    3.5   115     7.1   971.1    0.00 
 245   15:00   0.63  102.0    11    3.6    72     8.0   970.8    0.00 
 245   15:10   0.60  102.1    12    5.1    51    12.3   970.8    0.00 
 245   15:20   0.56  101.3    12    7.1    54    11.3   970.7    0.00 
 245   15:30   0.53  101.0    12    5.5    61    10.7   970.6    0.00 
 245   15:40   0.50  101.7    12    5.7    51    11.2   970.4    0.00 
 245   15:50   0.46  101.3    13    6.5    72    10.3   970.3    0.00 
 245   16:00   0.42  101.1    12    5.6    72    10.0   970.2    0.00 
 245   16:10   0.38  100.7    12    5.2    83     9.3   970.3    0.00 
 245   16:20   0.35  101.2    12    4.3    99     8.0   970.3    0.00 
 245   16:30   0.31  101.8    11    3.2    99     8.6   970.3    0.00 
 245   16:40   0.28  101.4    11    4.7    77     9.9   970.3    0.00 
 245   16:50   0.24  100.9    11    6.7    73    11.0   970.2    0.00 
 245   17:00   0.20  100.2    12    5.9    86    10.4   970.1    0.00 
 245   17:10   0.13   99.7    12    6.0    72    10.0   970.1    0.00 
 245   17:20   0.03   99.2    12    2.5   111     6.0   969.9    0.00 
 245   17:30   0.03   99.3    12    1.0   305     2.3   969.8    0.00 
 245   17:40   0.01   99.1    12    2.4   296     4.5   969.8    0.00 
 245   17:50   0.01   98.9    12    3.0   358     6.4   969.8    0.00 
 245   18:00   0.01   98.5    12    4.0   360     6.1   969.8    0.00 
 245   18:10   0.00   98.2    12    3.3   352     5.7   969.8    0.00 
 245   18:20   0.00   98.1    12    2.0   247     4.5   969.8    0.00 
 245   18:30   0.00   97.8    13    5.8   208    15.2   969.7    0.00 
 245   18:40   0.00   97.1    15    8.6   200    12.6   969.7    0.00 
 245   18:50   0.00   96.6    15   10.0   211    16.7   969.9    0.00 
 245   19:00   0.00   96.1    16    7.6   230    17.4   970.0    0.00 
 245   19:10   0.00   95.7    17    6.5   221    11.1   970.0    0.00 
 245   19:20   0.00   95.3    17    4.3   208    10.9   970.1    0.00 
 245   19:30   0.00   95.0    16    3.5   170     8.7   970.1    0.00 
 245   19:40   0.00   94.7    16    4.4   168     9.3   970.1    0.00 
 245   19:50   0.00   94.5    16    8.4   175    13.8   970.0    0.00 
 245   20:00   0.00   94.1    17    9.5   177    15.3   970.0    0.00 
 245   20:10   0.00   94.0    17    7.7   174    13.2   970.0    0.00 
 245   20:20   0.00   94.1    16    6.9   185    13.5   970.1    0.00 
 245   20:30   0.00   94.0    15    3.4   232    17.6   970.2    0.00 
 245   20:40   0.00   92.9    15    2.9   105     7.0   970.2    0.00 
 245   20:50   0.00   91.4    16    6.2    61     8.6   970.3    0.00 
 245   21:00   0.00   91.1    16    3.3    35     9.4   970.3    0.00 
 245   21:10   0.00   90.3    16    2.2    52     3.8   970.3    0.00 
 245   21:20   0.00   90.4    16    3.0   285    10.5   970.2    0.00 
 245   21:30   0.00   91.8    14    4.3   210    16.4   970.1    0.00 
 245   21:40   0.00   92.8    13    8.2   232    15.1   970.1    0.00 
 245   21:50   0.00   93.1    12    7.7   234    14.5   970.1    0.00 
 245   22:00   0.00   91.7    14    4.7   194     9.3   970.2    0.00 
 245   22:10   0.00   89.1    16    4.0    84    10.6   970.1    0.00 
 245   22:20   0.00   90.3    14    9.8   206    21.9   970.1    0.00 
 245   22:30   0.00   92.9    12   10.3   211    20.6   970.1    0.00 
 245   22:40   0.00   91.1    14    7.5   235    18.3   970.2    0.00 
 245   22:50   0.00   85.3    19    4.4    76     8.8   970.2    0.00 
 245   23:00   0.00   84.7    19    3.0    60     4.7   970.2    0.00 
 245   23:10   0.00   84.4    20    1.4   108     3.6   970.3    0.00 
 245   23:20   0.00   84.4    19    2.1    83     3.7   970.4    0.00 
 245   23:30   0.00   84.0    20    3.2    73     4.5   970.4    0.00 
 245   23:40   0.00   83.3    20    1.5    30     3.0   970.4    0.00 
 245   23:50   0.00   82.4    20    1.0    43     2.6   970.4    0.00 
 246    0:00   0.00   81.9    21    0.7    26     2.3   970.4    0.00 
 246    0:10   0.00   81.8    21    0.9    26     2.0   970.4    0.00 
 246    0:20   0.00   81.7    21    0.5   352     1.5   970.5    0.00 

Return to Boyd Deep Canyon Reserve graphs page.


Western Regional Climate Center,wrcc@dri.edu